createdAt,value
2022-11-02T00:05:36.940Z,981.43
2022-11-02T00:13:25.801Z,981.36
2022-11-02T00:21:03.648Z,981.38
2022-11-02T00:28:48.091Z,981.4
2022-11-02T00:36:37.153Z,981.49
2022-11-02T00:44:12.931Z,981.5
2022-11-02T00:52:02.380Z,981.48
2022-11-02T00:59:36.135Z,981.39
2022-11-02T01:07:06.287Z,981.51
2022-11-02T01:14:36.136Z,981.39
2022-11-02T01:22:04.942Z,981.43
2022-11-02T01:29:37.111Z,981.35
2022-11-02T01:37:14.002Z,981.25
2022-11-02T01:45:03.777Z,981.24
2022-11-02T01:52:57.848Z,981.11
2022-11-02T02:00:59.672Z,981.15
2022-11-02T02:08:52.970Z,981.12
2022-11-02T02:16:34.215Z,981.03
2022-11-02T02:24:43.022Z,981.08
2022-11-02T02:32:47.635Z,981.02
2022-11-02T02:41:07.622Z,981.1
2022-11-02T02:49:05.088Z,981.11
2022-11-02T03:04:54.543Z,981.04
2022-11-02T03:12:51.626Z,981.05
2022-11-02T03:20:55.561Z,981.17
2022-11-02T03:29:02.277Z,981.14
2022-11-02T03:36:24.229Z,981.27
2022-11-02T03:43:35.207Z,981.33
2022-11-02T03:50:50.126Z,981.44
2022-11-02T03:58:40.223Z,981.42
2022-11-02T04:05:50.032Z,981.51
2022-11-02T04:13:07.786Z,981.62
2022-11-02T04:20:42.513Z,981.64
2022-11-02T04:28:23.558Z,981.69
2022-11-02T04:35:56.248Z,981.73
2022-11-02T04:43:28.555Z,981.71
2022-11-02T04:51:11.210Z,981.88
2022-11-02T04:58:39.744Z,982
2022-11-02T05:05:58.702Z,982.1
2022-11-02T05:13:25.940Z,982.06
2022-11-02T05:20:52.515Z,982.16
2022-11-02T05:28:20.846Z,982.25
2022-11-02T05:35:55.935Z,982.33
2022-11-02T05:43:18.839Z,982.38
2022-11-02T05:50:42.721Z,982.4
2022-11-02T05:58:11.832Z,982.49
2022-11-02T06:05:40.121Z,982.51
2022-11-02T06:12:59.499Z,982.69
2022-11-02T06:20:13.322Z,982.71
2022-11-02T06:27:14.530Z,982.78
2022-11-02T06:33:55.828Z,982.85
2022-11-02T06:41:05.336Z,983.01
2022-11-02T06:48:36.101Z,983.14
2022-11-02T06:56:04.614Z,983.34
2022-11-02T07:03:21.316Z,983.48
2022-11-02T07:10:46.645Z,983.59
2022-11-02T07:17:34.546Z,983.7
2022-11-02T07:24:10.736Z,983.84
2022-11-02T07:30:44.516Z,983.96
2022-11-02T07:37:13.968Z,984.02
2022-11-02T07:44:00.530Z,984.08
2022-11-02T07:50:37.960Z,984.08
2022-11-02T07:57:38.743Z,984.17
2022-11-02T08:04:51.476Z,984.24
2022-11-02T08:12:23.107Z,984.22
2022-11-02T08:19:39.105Z,984.3
2022-11-02T08:27:08.050Z,984.29
2022-11-02T08:34:17.682Z,984.22
2022-11-02T08:41:39.782Z,984.29
2022-11-02T08:49:10.737Z,984.4
2022-11-02T08:56:17.247Z,984.4
2022-11-02T09:03:46.869Z,984.33
2022-11-02T09:11:10.989Z,984.39
2022-11-02T09:18:32.688Z,984.32
2022-11-02T09:25:38.427Z,984.49
2022-11-02T09:32:58.052Z,984.48
2022-11-02T09:40:24.169Z,984.68
2022-11-02T09:48:30.521Z,984.67
2022-11-02T09:57:48.666Z,984.68
2022-11-02T10:07:02.432Z,984.65
2022-11-02T10:15:41.880Z,984.78
2022-11-02T10:24:04.756Z,984.8
2022-11-02T10:32:38.339Z,984.85
2022-11-02T10:40:40.637Z,984.84
2022-11-02T10:48:56.260Z,984.83
2022-11-02T10:56:51.884Z,984.87
2022-11-02T11:05:02.777Z,984.85
2022-11-02T11:21:27.093Z,984.69
2022-11-02T11:29:29.770Z,984.77
2022-11-02T11:37:24.280Z,984.77
2022-11-02T11:45:41.549Z,984.66
2022-11-02T11:53:50.595Z,984.56
2022-11-02T12:02:05.652Z,984.49
2022-11-02T12:10:20.680Z,984.47
2022-11-02T12:18:47.633Z,984.35
2022-11-02T12:27:03.342Z,984.28
2022-11-02T12:35:28.721Z,984.19
2022-11-02T12:43:29.911Z,984.11
2022-11-02T12:51:48.038Z,984.13
2022-11-02T13:00:03.215Z,984.17
2022-11-02T13:08:13.085Z,984.07
2022-11-02T13:16:28.651Z,983.97
2022-11-02T13:25:02.154Z,983.93
2022-11-02T13:33:22.668Z,983.91
2022-11-02T13:41:20.791Z,983.8
2022-11-02T13:49:37.293Z,983.77
2022-11-02T13:58:07.171Z,983.74
2022-11-02T14:06:21.974Z,983.73
2022-11-02T14:14:24.364Z,983.7
2022-11-02T14:22:34.704Z,983.66
2022-11-02T14:30:27.366Z,983.58
2022-11-02T14:38:31.409Z,983.52
2022-11-02T14:46:31.666Z,983.4
2022-11-02T14:54:25.991Z,983.47
2022-11-02T15:02:44.010Z,983.38
2022-11-02T15:10:38.130Z,983.23
2022-11-02T15:18:41.623Z,983.29
2022-11-02T15:26:58.486Z,983.25
2022-11-02T15:35:02.886Z,983.2
2022-11-02T15:43:01.652Z,983.21
2022-11-02T15:51:29.861Z,983.14
2022-11-02T15:59:55.374Z,983.02
2022-11-02T16:08:11.203Z,982.94
2022-11-02T16:15:56.339Z,982.81
2022-11-02T16:23:48.454Z,982.74
2022-11-02T16:31:56.264Z,982.75
2022-11-02T16:39:42.048Z,982.72
2022-11-02T16:47:37.241Z,982.79
2022-11-02T16:55:45.875Z,982.78
2022-11-02T17:03:42.925Z,982.91
2022-11-02T17:11:47.418Z,982.95
2022-11-02T17:19:55.492Z,982.84
2022-11-02T17:27:50.005Z,982.87
2022-11-02T17:35:33.673Z,982.89
2022-11-02T17:43:21.940Z,982.8
2022-11-02T17:51:21.985Z,982.83
2022-11-02T17:59:12.157Z,982.86
2022-11-02T18:06:56.872Z,982.8
2022-11-02T18:14:33.195Z,982.73
2022-11-02T18:22:24.790Z,982.77
2022-11-02T18:30:05.706Z,982.71
2022-11-02T18:37:47.463Z,982.63
2022-11-02T18:45:41.311Z,982.51
2022-11-02T18:53:22.108Z,982.48
2022-11-02T19:01:03.270Z,982.44
2022-11-02T19:09:07.058Z,982.31
2022-11-02T19:16:58.654Z,982.31
2022-11-02T19:24:37.164Z,982.22
2022-11-02T19:32:13.898Z,982.16
2022-11-02T19:39:58.480Z,982.01
2022-11-02T19:47:36.219Z,982.02
2022-11-02T19:55:28.403Z,981.98
2022-11-02T20:03:30.066Z,981.95
2022-11-02T20:11:11.476Z,981.95
2022-11-02T20:18:50.970Z,981.87
2022-11-02T20:26:28.980Z,981.8
2022-11-02T20:34:23.820Z,981.79
2022-11-02T20:42:10.114Z,981.84
2022-11-02T20:49:52.137Z,981.72
2022-11-02T20:57:32.142Z,981.73
2022-11-02T21:05:06.734Z,981.68
2022-11-02T21:12:42.886Z,981.59
2022-11-02T21:20:35.885Z,981.45
2022-11-02T21:28:21.816Z,981.42
2022-11-02T21:36:10.404Z,981.43
2022-11-02T21:43:50.140Z,981.38
2022-11-02T21:51:42.266Z,981.32
2022-11-02T21:59:32.464Z,981.28
2022-11-02T22:07:16.366Z,981.18
2022-11-02T22:14:56.905Z,981.09
2022-11-02T22:22:54.175Z,980.99
2022-11-02T22:30:39.542Z,980.81
2022-11-02T22:38:36.935Z,980.82
2022-11-02T22:46:24.908Z,980.92
2022-11-02T22:54:07.993Z,980.89
2022-11-02T23:01:57.084Z,980.76
2022-11-02T23:09:40.629Z,980.74
2022-11-02T23:17:19.497Z,980.61
2022-11-02T23:24:50.301Z,980.52
2022-11-02T23:32:33.504Z,980.46
2022-11-02T23:40:06.044Z,980.42
2022-11-02T23:47:44.936Z,980.37
2022-11-02T23:55:26.811Z,980.3
